createdAt,value
2023-01-15T00:01:59.240Z,21.20
2023-01-15T00:04:26.131Z,21.10
2023-01-15T00:06:54.629Z,21.20
2023-01-15T00:09:21.298Z,21.10
2023-01-15T00:11:48.088Z,21.20
2023-01-15T00:14:14.895Z,21.10
2023-01-15T00:16:41.716Z,21.10
2023-01-15T00:21:53.902Z,21.20
2023-01-15T00:24:39.402Z,21.20
2023-01-15T00:27:24.786Z,21.20
2023-01-15T00:29:51.508Z,21.20
2023-01-15T00:32:18.277Z,21.20
2023-01-15T00:34:45.005Z,21.20
2023-01-15T00:37:11.829Z,21.20
2023-01-15T00:39:38.624Z,21.20
2023-01-15T00:42:05.613Z,21.20
2023-01-15T00:44:33.734Z,21.20
2023-01-15T00:47:00.516Z,21.20
2023-01-15T00:49:27.356Z,21.20
2023-01-15T00:51:54.036Z,21.10
2023-01-15T00:54:20.811Z,21.10
2023-01-15T00:56:47.547Z,21.10
2023-01-15T00:59:14.320Z,21.10
2023-01-15T01:01:41.275Z,21.10
2023-01-15T01:04:08.019Z,21.10
2023-01-15T01:06:34.726Z,21.10
2023-01-15T01:09:01.590Z,21.10
2023-01-15T01:11:32.934Z,21.10
2023-01-15T01:14:01.312Z,21.10
2023-01-15T01:16:33.561Z,21.10
2023-01-15T01:19:03.558Z,21.10
2023-01-15T01:21:31.493Z,21.10
2023-01-15T01:23:59.819Z,21.10
2023-01-15T01:26:27.344Z,21.10
2023-01-15T01:28:54.850Z,21.10
2023-01-15T01:31:22.272Z,21.10
2023-01-15T01:33:51.133Z,21.10
2023-01-15T01:36:18.578Z,21.10
2023-01-15T01:38:49.592Z,21.10
2023-01-15T01:41:18.089Z,21.10
2023-01-15T01:44:27.878Z,21.10
2023-01-15T01:46:54.607Z,21.10
2023-01-15T01:49:21.452Z,21.10
2023-01-15T01:51:54.467Z,21.10
2023-01-15T01:54:24.415Z,21.10
2023-01-15T01:56:51.941Z,21.10
2023-01-15T01:59:20.901Z,21.10
2023-01-15T02:01:49.403Z,21.10
2023-01-15T02:04:18.555Z,21.10
2023-01-15T02:06:45.451Z,21.10
2023-01-15T02:09:12.539Z,21.10
2023-01-15T02:11:39.821Z,21.10
2023-01-15T02:14:18.893Z,21.10
2023-01-15T02:17:11.802Z,21.10
2023-01-15T02:19:56.323Z,21.10
2023-01-15T02:22:50.699Z,21.10
2023-01-15T02:25:24.618Z,21.10
2023-01-15T02:28:16.605Z,21.10
2023-01-15T02:30:49.083Z,21.10
2023-01-15T02:33:24.296Z,21.10
2023-01-15T02:36:00.790Z,21.10
2023-01-15T02:38:32.381Z,21.10
2023-01-15T02:41:02.210Z,21.10
2023-01-15T02:43:35.183Z,21.10
2023-01-15T02:46:04.334Z,21.10
2023-01-15T02:48:34.188Z,21.10
2023-01-15T02:51:09.512Z,21.10
2023-01-15T02:53:40.022Z,21.10
2023-01-15T02:56:13.245Z,21.10
2023-01-15T02:58:42.374Z,21.10
2023-01-15T03:01:16.553Z,21.10
2023-01-15T03:03:48.146Z,21.10
2023-01-15T03:06:51.932Z,21.10
2023-01-15T03:09:20.549Z,21.10
2023-01-15T03:12:09.957Z,21.10
2023-01-15T03:14:46.026Z,21.10
2023-01-15T03:17:22.200Z,21.10
2023-01-15T03:19:55.863Z,21.10
2023-01-15T03:22:34.631Z,21.10
2023-01-15T03:25:12.493Z,21.10
2023-01-15T03:27:39.513Z,21.10
2023-01-15T03:30:14.928Z,21.10
2023-01-15T03:32:41.854Z,21.10
2023-01-15T03:35:29.683Z,21.10
2023-01-15T03:37:56.410Z,21.10
2023-01-15T03:40:23.333Z,21.10
2023-01-15T03:43:44.083Z,21.10
2023-01-15T03:46:31.652Z,21.10
2023-01-15T03:49:16.390Z,21.10
2023-01-15T03:51:49.383Z,21.10
2023-01-15T03:54:26.145Z,21.10
2023-01-15T04:00:41.629Z,21.10
2023-01-15T04:03:11.144Z,21.10
2023-01-15T04:05:39.406Z,21.10
2023-01-15T04:08:07.004Z,21.10
2023-01-15T04:10:33.732Z,21.10
2023-01-15T04:13:00.307Z,21.10
2023-01-15T04:15:27.038Z,21.10
2023-01-15T04:17:53.822Z,21.10
2023-01-15T04:20:21.695Z,21.10
2023-01-15T04:22:48.432Z,21.00
2023-01-15T04:25:15.211Z,21.10
2023-01-15T04:27:42.187Z,21.10
2023-01-15T04:30:09.679Z,21.10
2023-01-15T04:32:36.377Z,21.00
2023-01-15T04:35:03.027Z,21.00
2023-01-15T04:37:29.644Z,21.10
2023-01-15T04:39:56.214Z,21.10
2023-01-15T04:42:41.999Z,21.10
2023-01-15T04:45:09.158Z,21.10
2023-01-15T04:47:35.955Z,21.10
2023-01-15T04:50:02.913Z,21.00
2023-01-15T04:52:29.551Z,21.10
2023-01-15T04:54:56.752Z,21.10
2023-01-15T04:57:23.604Z,21.00
2023-01-15T04:59:50.242Z,21.00
2023-01-15T05:02:17.378Z,21.00
2023-01-15T05:04:44.166Z,21.00
2023-01-15T05:07:10.769Z,21.00
2023-01-15T05:09:37.461Z,21.00
2023-01-15T05:12:04.389Z,21.00
2023-01-15T05:14:31.316Z,21.00
2023-01-15T05:16:57.888Z,21.00
2023-01-15T05:19:24.465Z,21.00
2023-01-15T05:21:51.477Z,21.00
2023-01-15T05:24:19.193Z,21.00
2023-01-15T05:26:45.828Z,21.00
2023-01-15T05:29:12.987Z,21.00
2023-01-15T05:31:41.802Z,21.00
2023-01-15T05:34:09.462Z,21.00
2023-01-15T05:36:37.527Z,21.00
2023-01-15T05:39:04.761Z,21.00
2023-01-15T05:41:49.679Z,21.00
2023-01-15T05:44:19.479Z,21.00
2023-01-15T05:46:47.785Z,21.00
2023-01-15T05:49:20.659Z,21.00
2023-01-15T05:51:50.233Z,21.00
2023-01-15T05:54:20.852Z,21.00
2023-01-15T05:56:48.801Z,21.00
2023-01-15T05:59:17.852Z,21.00
2023-01-15T06:01:44.627Z,21.00
2023-01-15T06:04:14.439Z,21.00
2023-01-15T06:06:42.806Z,21.00
2023-01-15T06:09:10.196Z,21.00
2023-01-15T06:11:37.013Z,21.00
2023-01-15T06:14:03.953Z,21.00
2023-01-15T06:16:30.690Z,21.00
2023-01-15T06:19:04.480Z,21.00
2023-01-15T06:21:33.283Z,20.90
2023-01-15T06:23:59.897Z,21.00
2023-01-15T06:26:27.281Z,21.00
2023-01-15T06:28:54.306Z,21.00
2023-01-15T06:31:23.263Z,21.00
2023-01-15T06:33:50.327Z,21.00
2023-01-15T06:36:22.569Z,21.00
2023-01-15T06:38:49.930Z,20.90
2023-01-15T06:41:38.001Z,20.90
2023-01-15T06:44:23.437Z,20.90
2023-01-15T06:47:09.988Z,20.90
2023-01-15T06:49:37.519Z,20.90
2023-01-15T06:52:25.288Z,20.90
2023-01-15T06:54:52.127Z,20.90
2023-01-15T06:57:19.162Z,20.90
2023-01-15T06:59:46.162Z,20.70
2023-01-15T07:02:12.820Z,19.70
2023-01-15T07:04:39.439Z,19.40
2023-01-15T07:07:06.160Z,19.80
2023-01-15T07:09:32.849Z,20.20
2023-01-15T07:11:59.538Z,20.40
2023-01-15T07:14:28.083Z,20.60
2023-01-15T07:16:55.540Z,20.70
2023-01-15T07:19:22.281Z,20.70
2023-01-15T07:21:49.085Z,20.70
2023-01-15T07:24:16.431Z,20.60
2023-01-15T07:26:43.480Z,20.70
2023-01-15T07:29:10.218Z,20.70
2023-01-15T07:31:37.413Z,20.70
2023-01-15T07:34:04.793Z,20.70
2023-01-15T07:36:31.614Z,20.70
2023-01-15T07:38:58.258Z,20.70
2023-01-15T07:41:43.307Z,20.70
2023-01-15T07:44:30.228Z,20.70
2023-01-15T07:47:16.062Z,20.80
2023-01-15T07:49:46.519Z,20.80
2023-01-15T07:52:15.441Z,20.90
2023-01-15T07:54:42.552Z,20.90
2023-01-15T07:57:10.311Z,20.90
2023-01-15T07:59:37.065Z,20.80
2023-01-15T08:02:04.187Z,20.80
2023-01-15T08:04:31.032Z,20.80
2023-01-15T08:07:00.426Z,20.90
2023-01-15T08:09:27.908Z,20.90
2023-01-15T08:12:12.985Z,20.90
2023-01-15T08:14:58.461Z,20.80
2023-01-15T08:17:25.030Z,20.90
2023-01-15T08:19:51.675Z,20.90
2023-01-15T08:22:18.334Z,20.90
2023-01-15T08:24:44.969Z,20.90
2023-01-15T08:27:13.901Z,20.90
2023-01-15T08:29:40.817Z,20.90
2023-01-15T08:32:07.433Z,20.90
2023-01-15T08:34:34.154Z,20.90
2023-01-15T08:37:00.842Z,20.90
2023-01-15T08:39:28.329Z,20.90
2023-01-15T08:41:56.145Z,20.90
2023-01-15T08:44:23.710Z,20.90
2023-01-15T08:46:52.086Z,20.90
2023-01-15T08:49:20.584Z,20.90
2023-01-15T08:51:51.496Z,20.90
2023-01-15T08:54:20.042Z,20.90
2023-01-15T08:56:47.752Z,20.90
2023-01-15T08:59:14.330Z,20.90
2023-01-15T09:01:41.407Z,20.90
2023-01-15T09:04:08.189Z,20.90
2023-01-15T09:06:35.101Z,20.90
2023-01-15T09:09:01.834Z,20.90
2023-01-15T09:11:28.740Z,20.90
2023-01-15T09:13:55.407Z,20.90
2023-01-15T09:16:22.529Z,20.90
2023-01-15T09:18:49.167Z,20.90
2023-01-15T09:21:15.864Z,20.90
2023-01-15T09:23:42.428Z,20.90
2023-01-15T09:26:27.619Z,20.90
2023-01-15T09:28:54.844Z,20.90
2023-01-15T09:31:23.011Z,20.90
2023-01-15T09:33:49.885Z,20.90
2023-01-15T09:36:19.122Z,20.90
2023-01-15T09:38:45.892Z,20.90
2023-01-15T09:41:34.642Z,21.00
2023-01-15T09:44:12.863Z,20.90
2023-01-15T09:46:49.463Z,21.00
2023-01-15T09:49:34.143Z,20.90
2023-01-15T09:52:06.834Z,20.90
2023-01-15T09:54:44.948Z,20.90
2023-01-15T09:57:16.181Z,20.90
2023-01-15T09:59:48.895Z,20.90
2023-01-15T10:02:29.533Z,20.90
2023-01-15T10:05:18.258Z,20.90
2023-01-15T10:08:17.881Z,20.90
2023-01-15T10:10:56.761Z,20.90
2023-01-15T10:13:47.753Z,20.90
2023-01-15T10:16:22.593Z,20.90
2023-01-15T10:18:49.592Z,20.90
2023-01-15T10:21:34.958Z,20.90
2023-01-15T10:24:10.557Z,20.90
2023-01-15T10:26:50.949Z,20.90
2023-01-15T10:29:44.969Z,20.90
2023-01-15T10:32:20.773Z,20.90
2023-01-15T10:35:47.460Z,20.90
2023-01-15T10:38:40.327Z,20.90
2023-01-15T10:41:31.844Z,20.90
2023-01-15T10:44:39.508Z,20.90
2023-01-15T10:47:13.824Z,20.90
2023-01-15T10:49:41.820Z,20.90
2023-01-15T10:52:20.885Z,20.90
2023-01-15T10:54:51.174Z,20.90
2023-01-15T10:57:18.037Z,20.90
2023-01-15T10:59:58.618Z,20.90
2023-01-15T11:02:32.358Z,19.90
2023-01-15T11:04:59.166Z,19.00
2023-01-15T11:08:10.389Z,18.50
2023-01-15T11:10:34.984Z,19.30
2023-01-15T11:13:41.348Z,19.80
2023-01-15T11:16:41.735Z,20.20
2023-01-15T11:19:42.517Z,20.40
2023-01-15T11:22:17.465Z,20.50
2023-01-15T11:24:50.531Z,20.60
2023-01-15T11:27:26.706Z,20.60
2023-01-15T11:29:56.905Z,20.60
2023-01-15T11:32:36.063Z,20.70
2023-01-15T11:35:09.022Z,20.70
2023-01-15T11:37:35.607Z,20.80
2023-01-15T11:40:07.339Z,20.80
2023-01-15T11:42:56.102Z,20.80
2023-01-15T11:45:42.418Z,20.80
2023-01-15T11:48:45.495Z,20.90
2023-01-15T11:51:15.593Z,20.90
2023-01-15T11:53:46.435Z,20.90
2023-01-15T11:56:20.449Z,20.90
2023-01-15T11:58:50.149Z,21.00
2023-01-15T12:01:33.378Z,21.00
2023-01-15T12:04:02.895Z,21.00
2023-01-15T12:06:31.206Z,21.00
2023-01-15T12:09:04.709Z,21.00
2023-01-15T12:11:50.150Z,21.00
2023-01-15T12:14:16.673Z,21.10
2023-01-15T12:16:49.394Z,21.10
2023-01-15T12:19:27.780Z,21.10
2023-01-15T12:22:34.805Z,21.10
2023-01-15T12:25:04.916Z,21.10
2023-01-15T12:27:40.291Z,21.10
2023-01-15T12:30:12.743Z,21.10
2023-01-15T12:32:47.774Z,21.00
2023-01-15T12:35:32.225Z,21.10
2023-01-15T12:38:13.920Z,21.10
2023-01-15T12:41:08.936Z,21.10
2023-01-15T12:43:54.377Z,21.10
2023-01-15T12:46:29.065Z,21.10
2023-01-15T12:49:01.308Z,21.10
2023-01-15T12:51:54.018Z,21.10
2023-01-15T12:54:35.750Z,21.10
2023-01-15T12:57:22.886Z,21.10
2023-01-15T13:00:02.713Z,21.00
2023-01-15T13:03:05.331Z,20.90
2023-01-15T13:05:41.653Z,20.90
2023-01-15T13:08:29.333Z,20.90
2023-01-15T13:10:56.264Z,20.80
2023-01-15T13:13:30.679Z,20.90
2023-01-15T13:16:16.888Z,20.80
2023-01-15T13:19:02.248Z,20.80
2023-01-15T13:21:30.934Z,20.80
2023-01-15T13:24:19.951Z,20.80
2023-01-15T13:27:14.405Z,20.80
2023-01-15T13:30:02.894Z,20.80
2023-01-15T13:32:34.752Z,20.80
2023-01-15T13:35:18.120Z,20.80
2023-01-15T13:37:50.570Z,20.80
2023-01-15T13:40:38.667Z,20.80
2023-01-15T13:43:07.450Z,20.80
2023-01-15T13:45:49.669Z,20.80
2023-01-15T13:48:23.932Z,20.80
2023-01-15T13:50:54.803Z,20.80
2023-01-15T13:53:35.650Z,20.80
2023-01-15T13:56:12.468Z,20.80
2023-01-15T13:58:51.812Z,20.80
2023-01-15T14:01:19.715Z,20.80
2023-01-15T14:04:01.540Z,20.80
2023-01-15T14:06:46.373Z,20.80
2023-01-15T14:09:20.534Z,20.80
2023-01-15T14:12:07.660Z,20.80
2023-01-15T14:14:53.917Z,20.80
2023-01-15T14:17:57.492Z,20.80
2023-01-15T14:20:56.681Z,20.80
2023-01-15T14:23:52.936Z,20.80
2023-01-15T14:26:41.065Z,20.80
2023-01-15T14:29:29.139Z,20.80
2023-01-15T14:32:24.009Z,20.80
2023-01-15T14:34:58.991Z,20.80
2023-01-15T14:37:32.937Z,20.80
2023-01-15T14:40:02.889Z,20.80
2023-01-15T14:42:52.776Z,20.80
2023-01-15T14:45:28.136Z,20.80
2023-01-15T14:47:57.626Z,20.80
2023-01-15T14:50:44.100Z,20.80
2023-01-15T14:53:13.729Z,20.80
2023-01-15T14:56:02.969Z,20.80
2023-01-15T14:58:59.773Z,20.80
2023-01-15T15:01:44.081Z,20.80
2023-01-15T15:04:34.911Z,20.80
2023-01-15T15:07:26.843Z,20.80
2023-01-15T15:09:57.352Z,20.80
2023-01-15T15:12:41.423Z,20.90
2023-01-15T15:15:13.408Z,20.90
2023-01-15T15:18:01.619Z,21.00
2023-01-15T15:20:44.566Z,21.20
2023-01-15T15:23:17.136Z,21.30
2023-01-15T15:25:52.747Z,19.30
2023-01-15T15:28:19.303Z,18.50
2023-01-15T15:30:46.969Z,18.90
2023-01-15T15:33:20.832Z,19.40
2023-01-15T15:36:07.558Z,19.80
2023-01-15T15:38:34.347Z,20.00
2023-01-15T15:41:06.470Z,20.10
2023-01-15T15:43:54.668Z,20.30
2023-01-15T15:46:48.121Z,20.30
2023-01-15T15:49:15.061Z,20.40
2023-01-15T15:51:52.545Z,20.40
2023-01-15T15:54:28.384Z,20.40
2023-01-15T15:57:14.844Z,20.40
2023-01-15T15:59:52.259Z,20.40
2023-01-15T16:02:24.445Z,20.50
2023-01-15T16:04:56.285Z,20.50
2023-01-15T16:07:29.078Z,20.50
2023-01-15T16:10:02.544Z,20.60
2023-01-15T16:12:31.298Z,20.50
2023-01-15T16:14:59.948Z,20.60
2023-01-15T16:17:28.006Z,20.60
2023-01-15T16:19:56.696Z,20.60
2023-01-15T16:22:23.588Z,20.50
2023-01-15T16:24:59.276Z,20.60
2023-01-15T16:27:32.893Z,20.60
2023-01-15T16:30:00.084Z,20.50
2023-01-15T16:32:33.390Z,20.60
2023-01-15T16:35:14.730Z,20.60
2023-01-15T16:37:42.084Z,20.50
2023-01-15T16:40:19.565Z,20.60
2023-01-15T16:42:47.368Z,20.60
2023-01-15T16:45:25.779Z,20.60
2023-01-15T16:48:07.902Z,20.60
2023-01-15T16:50:36.518Z,20.60
2023-01-15T16:53:06.704Z,20.60
2023-01-15T16:55:46.733Z,20.60
2023-01-15T16:58:13.321Z,20.60
2023-01-15T17:00:43.296Z,20.60
2023-01-15T17:03:16.814Z,20.60
2023-01-15T17:05:44.547Z,20.60
2023-01-15T17:08:39.268Z,20.60
2023-01-15T17:11:17.409Z,20.60
2023-01-15T17:13:44.161Z,20.40
2023-01-15T17:16:13.563Z,18.20
2023-01-15T17:18:40.474Z,17.40
2023-01-15T17:21:11.195Z,17.00
2023-01-15T17:23:41.842Z,17.70
2023-01-15T17:26:15.356Z,18.60
2023-01-15T17:28:41.927Z,19.20
2023-01-15T17:31:30.736Z,19.50
2023-01-15T17:33:59.395Z,19.70
2023-01-15T17:36:27.727Z,19.70
2023-01-15T17:38:55.021Z,19.80
2023-01-15T17:41:22.884Z,19.90
2023-01-15T17:43:50.130Z,20.00
2023-01-15T17:46:17.308Z,20.00
2023-01-15T17:48:44.232Z,20.00
2023-01-15T17:51:13.843Z,20.00
2023-01-15T17:53:40.534Z,20.00
2023-01-15T17:56:26.710Z,20.10
2023-01-15T17:59:12.243Z,20.10
2023-01-15T18:02:00.606Z,20.20
2023-01-15T18:04:57.346Z,20.20
2023-01-15T18:07:27.063Z,20.20
2023-01-15T18:09:56.195Z,20.20
2023-01-15T18:12:23.434Z,20.20
2023-01-15T18:14:50.189Z,20.20
2023-01-15T18:17:16.785Z,20.20
2023-01-15T18:19:43.378Z,20.20
2023-01-15T18:22:10.468Z,20.30
2023-01-15T18:24:37.204Z,20.30
2023-01-15T18:27:03.877Z,20.30
2023-01-15T18:29:30.506Z,20.30
2023-01-15T18:31:57.108Z,20.30
2023-01-15T18:34:23.721Z,20.30
2023-01-15T18:36:50.314Z,20.40
2023-01-15T18:39:16.925Z,20.40
2023-01-15T18:41:43.486Z,20.40
2023-01-15T18:44:40.088Z,20.40
2023-01-15T18:47:15.126Z,20.40
2023-01-15T18:49:43.386Z,20.40
2023-01-15T18:52:30.622Z,20.40
2023-01-15T18:54:57.477Z,20.40
2023-01-15T18:57:24.389Z,20.50
2023-01-15T18:59:51.352Z,20.50
2023-01-15T19:02:20.382Z,20.50
2023-01-15T19:04:48.023Z,20.60
2023-01-15T19:07:15.180Z,21.40
2023-01-15T19:09:41.864Z,20.50
2023-01-15T19:12:08.824Z,20.50
2023-01-15T19:14:54.003Z,20.50
2023-01-15T19:17:42.047Z,20.50
2023-01-15T19:20:14.113Z,20.60
2023-01-15T19:22:58.825Z,20.60
2023-01-15T19:25:26.915Z,20.60
2023-01-15T19:27:53.722Z,20.60
2023-01-15T19:30:20.598Z,20.60
2023-01-15T19:32:47.245Z,20.70
2023-01-15T19:35:14.205Z,20.70
2023-01-15T19:37:41.642Z,20.80
2023-01-15T19:40:22.626Z,20.70
2023-01-15T19:43:12.156Z,20.60
2023-01-15T19:46:00.963Z,20.70
2023-01-15T19:48:46.393Z,20.60
2023-01-15T19:51:13.727Z,20.70
2023-01-15T19:53:40.673Z,20.70
2023-01-15T19:56:08.078Z,20.80
2023-01-15T19:58:34.989Z,20.70
2023-01-15T20:01:02.266Z,20.70
2023-01-15T20:03:29.290Z,20.80
2023-01-15T20:05:56.016Z,20.80
2023-01-15T20:08:22.855Z,20.80
2023-01-15T20:10:50.593Z,20.80
2023-01-15T20:13:40.119Z,20.70
2023-01-15T20:16:18.017Z,20.80
2023-01-15T20:18:45.670Z,20.80
2023-01-15T20:21:14.453Z,20.70
2023-01-15T20:23:41.689Z,20.70
2023-01-15T20:26:11.169Z,20.80
2023-01-15T20:28:39.988Z,20.80
2023-01-15T20:31:06.842Z,20.80
2023-01-15T20:33:33.471Z,20.80
2023-01-15T20:36:04.314Z,20.80
2023-01-15T20:38:31.434Z,20.80
2023-01-15T20:41:20.754Z,20.80
2023-01-15T20:44:06.217Z,20.80
2023-01-15T20:46:32.821Z,20.80
2023-01-15T20:49:18.131Z,20.80
2023-01-15T20:51:47.002Z,20.80
2023-01-15T20:54:14.240Z,20.80
2023-01-15T20:56:40.922Z,20.80
2023-01-15T20:59:07.583Z,20.80
2023-01-15T21:01:40.506Z,20.80
2023-01-15T21:04:09.708Z,20.80
2023-01-15T21:06:36.598Z,20.80
2023-01-15T21:09:03.553Z,20.80
2023-01-15T21:11:30.155Z,20.80
2023-01-15T21:13:56.779Z,20.80
2023-01-15T21:16:23.493Z,20.70
2023-01-15T21:18:50.966Z,20.60
2023-01-15T21:21:19.259Z,20.60
2023-01-15T21:23:46.319Z,20.60
2023-01-15T21:26:14.421Z,20.60
2023-01-15T21:28:41.724Z,20.60
2023-01-15T21:31:09.704Z,20.60
2023-01-15T21:33:36.531Z,20.90
2023-01-15T21:36:12.103Z,21.00
2023-01-15T21:38:39.018Z,20.90
2023-01-15T21:41:11.156Z,20.90
2023-01-15T21:43:56.835Z,20.80
2023-01-15T21:46:27.667Z,21.00
2023-01-15T21:48:56.083Z,21.20
2023-01-15T21:51:24.172Z,21.40
2023-01-15T21:53:51.070Z,21.40
2023-01-15T21:56:17.867Z,21.50
2023-01-15T21:58:44.661Z,21.60
2023-01-15T22:01:13.108Z,21.70
2023-01-15T22:03:41.326Z,21.70
2023-01-15T22:06:09.780Z,21.50
2023-01-15T22:08:41.309Z,21.40
2023-01-15T22:11:10.084Z,21.50
2023-01-15T22:13:38.165Z,21.30
2023-01-15T22:16:05.195Z,21.20
2023-01-15T22:18:35.561Z,21.20
2023-01-15T22:21:07.345Z,21.10
2023-01-15T22:23:34.824Z,21.10
2023-01-15T22:26:01.510Z,21.20
2023-01-15T22:28:28.193Z,21.20
2023-01-15T22:30:54.854Z,21.20
2023-01-15T22:33:21.726Z,21.20
2023-01-15T22:36:03.066Z,21.30
2023-01-15T22:38:30.031Z,21.50
2023-01-15T22:40:59.800Z,21.50
2023-01-15T22:43:28.733Z,21.70
2023-01-15T22:45:56.319Z,21.70
2023-01-15T22:48:24.019Z,21.70
2023-01-15T22:50:53.846Z,21.70
2023-01-15T22:53:20.448Z,21.70
2023-01-15T22:55:55.541Z,21.50
2023-01-15T22:58:22.481Z,21.40
2023-01-15T23:00:53.243Z,21.30
2023-01-15T23:03:19.916Z,21.20
2023-01-15T23:05:46.530Z,21.20
2023-01-15T23:08:13.131Z,21.20
2023-01-15T23:10:44.407Z,21.20
2023-01-15T23:13:11.348Z,21.20
2023-01-15T23:15:38.104Z,21.20
2023-01-15T23:18:05.588Z,21.20
2023-01-15T23:20:32.213Z,21.20
2023-01-15T23:22:58.824Z,21.20
2023-01-15T23:25:25.482Z,21.20
2023-01-15T23:27:52.099Z,21.20
2023-01-15T23:30:19.888Z,21.20
2023-01-15T23:32:46.458Z,21.20
2023-01-15T23:35:13.161Z,21.20
2023-01-15T23:37:39.827Z,21.20
2023-01-15T23:40:07.266Z,21.20
2023-01-15T23:42:52.280Z,21.20
2023-01-15T23:45:37.759Z,21.20
2023-01-15T23:48:04.832Z,21.20
2023-01-15T23:50:31.446Z,21.20
2023-01-15T23:52:58.140Z,21.20
2023-01-15T23:55:24.962Z,21.20
2023-01-15T23:57:51.671Z,21.20
